createdAt,value
2022-12-08T00:01:28.752Z,15.73
2022-12-08T00:03:58.627Z,13.95
2022-12-08T00:06:46.274Z,11.75
2022-12-08T00:09:25.757Z,11.55
2022-12-08T00:11:56.557Z,10.45
2022-12-08T00:14:35.490Z,11.18
2022-12-08T00:17:04.115Z,11.02
2022-12-08T00:19:31.949Z,11.02
2022-12-08T00:21:59.781Z,12.15
2022-12-08T00:24:31.435Z,10.93
2022-12-08T00:26:59.051Z,11.25
2022-12-08T00:29:26.527Z,11.23
2022-12-08T00:31:54.256Z,11.40
2022-12-08T00:34:21.908Z,12.15
2022-12-08T00:36:49.263Z,10.57
2022-12-08T00:39:17.336Z,12.73
2022-12-08T00:42:03.825Z,12.65
2022-12-08T00:44:31.247Z,11.90
2022-12-08T00:46:59.007Z,13.35
2022-12-08T00:49:26.556Z,11.77
2022-12-08T00:51:53.897Z,12.88
2022-12-08T00:54:22.967Z,13.82
2022-12-08T00:56:50.439Z,12.52
2022-12-08T00:59:17.840Z,12.13
2022-12-08T01:01:45.957Z,13.07
2022-12-08T01:04:15.717Z,12.35
2022-12-08T01:06:43.826Z,11.80
2022-12-08T01:09:11.822Z,13.35
2022-12-08T01:11:39.234Z,12.85
2022-12-08T01:14:06.530Z,11.55
2022-12-08T01:16:36.244Z,11.80
2022-12-08T01:19:04.388Z,11.98
2022-12-08T01:21:31.788Z,11.35
2022-12-08T01:24:00.422Z,11.15
2022-12-08T01:26:27.831Z,10.07
2022-12-08T01:28:55.255Z,11.65
2022-12-08T01:31:23.411Z,10.23
2022-12-08T01:33:51.212Z,9.77
2022-12-08T01:36:23.943Z,10.52
2022-12-08T01:38:52.097Z,10.75
2022-12-08T01:41:22.035Z,10.32
2022-12-08T01:44:02.817Z,11.02
2022-12-08T01:46:32.521Z,9.98
2022-12-08T01:49:04.125Z,10.15
2022-12-08T01:51:35.662Z,9.48
2022-12-08T01:54:03.883Z,9.95
2022-12-08T01:56:52.139Z,10.77
2022-12-08T01:59:20.533Z,9.98
2022-12-08T02:01:51.796Z,10.13
2022-12-08T02:04:19.518Z,9.38
2022-12-08T02:06:47.754Z,10.70
2022-12-08T02:09:15.470Z,9.98
2022-12-08T02:11:43.082Z,10.13
2022-12-08T02:14:11.577Z,8.82
2022-12-08T02:16:56.552Z,9.70
2022-12-08T02:19:37.480Z,9.85
2022-12-08T02:22:13.708Z,10.20
2022-12-08T02:24:51.928Z,9.52
2022-12-08T02:27:49.222Z,9.80
2022-12-08T02:30:32.009Z,9.25
2022-12-08T02:35:57.753Z,9.95
2022-12-08T02:38:24.914Z,9.27
2022-12-08T02:41:26.026Z,9.60
2022-12-08T02:44:11.202Z,10.07
2022-12-08T02:46:45.875Z,9.85
2022-12-08T02:49:15.223Z,10.20
2022-12-08T02:51:42.872Z,8.57
2022-12-08T02:54:10.619Z,9.80
2022-12-08T02:57:05.565Z,9.52
2022-12-08T02:59:43.039Z,8.65
2022-12-08T03:02:21.722Z,9.95
2022-12-08T03:05:02.292Z,9.40
2022-12-08T03:07:39.117Z,9.18
2022-12-08T03:10:19.598Z,9.63
2022-12-08T03:12:50.514Z,8.93
2022-12-08T03:15:19.766Z,8.93
2022-12-08T03:17:51.079Z,10.07
2022-12-08T03:20:21.841Z,9.00
2022-12-08T03:22:51.097Z,9.38
2022-12-08T03:25:21.663Z,9.15
2022-12-08T03:27:49.325Z,9.13
2022-12-08T03:30:17.147Z,8.65
2022-12-08T03:32:51.309Z,8.93
2022-12-08T03:35:24.970Z,8.18
2022-12-08T03:37:52.612Z,9.10
2022-12-08T03:40:21.031Z,9.45
2022-12-08T03:42:48.348Z,8.50
2022-12-08T03:45:16.166Z,9.77
2022-12-08T03:47:43.652Z,9.52
2022-12-08T03:50:11.703Z,9.60
2022-12-08T03:52:39.307Z,9.30
2022-12-08T03:55:07.096Z,9.63
2022-12-08T03:57:34.439Z,9.45
2022-12-08T04:00:02.890Z,9.55
2022-12-08T04:02:32.439Z,10.35
2022-12-08T04:05:00.091Z,9.63
2022-12-08T04:07:27.415Z,9.50
2022-12-08T04:09:54.726Z,9.57
2022-12-08T04:12:22.332Z,9.80
2022-12-08T04:14:49.679Z,10.15
2022-12-08T04:17:17.097Z,10.70
2022-12-08T04:19:44.736Z,11.27
2022-12-08T04:22:12.093Z,10.43
2022-12-08T04:24:39.447Z,10.88
2022-12-08T04:27:07.032Z,11.12
2022-12-08T04:29:34.318Z,12.15
2022-12-08T04:32:01.669Z,11.60
2022-12-08T04:34:29.288Z,10.50
2022-12-08T04:36:56.644Z,11.05
2022-12-08T04:39:24.129Z,11.75
2022-12-08T04:41:51.856Z,10.40
2022-12-08T04:44:19.194Z,12.18
2022-12-08T04:46:46.688Z,11.35
2022-12-08T04:49:14.294Z,12.40
2022-12-08T04:51:41.659Z,12.43
2022-12-08T04:54:08.975Z,11.77
2022-12-08T04:56:36.770Z,12.30
2022-12-08T04:59:04.132Z,14.00
2022-12-08T05:01:31.619Z,14.23
2022-12-08T05:03:59.331Z,12.75
2022-12-08T05:06:26.792Z,13.45
2022-12-08T05:08:54.192Z,13.68
2022-12-08T05:11:21.839Z,14.15
2022-12-08T05:13:49.172Z,13.50
2022-12-08T05:16:16.994Z,12.07
2022-12-08T05:18:44.627Z,11.00
2022-12-08T05:21:12.026Z,11.63
2022-12-08T05:23:39.391Z,12.07
2022-12-08T05:26:07.021Z,13.25
2022-12-08T05:28:43.101Z,13.00
2022-12-08T05:31:12.943Z,13.90
2022-12-08T05:33:40.885Z,13.13
2022-12-08T05:36:09.291Z,13.25
2022-12-08T05:38:36.964Z,13.25
2022-12-08T05:41:06.170Z,13.68
2022-12-08T05:43:33.584Z,11.88
2022-12-08T05:46:01.294Z,13.68
2022-12-08T05:48:28.770Z,12.07
2022-12-08T05:50:56.335Z,12.18
2022-12-08T05:53:23.943Z,12.37
2022-12-08T05:55:51.287Z,11.20
2022-12-08T05:58:20.303Z,11.55
2022-12-08T06:00:48.929Z,11.07
2022-12-08T06:03:18.547Z,12.37
2022-12-08T06:05:46.991Z,11.82
2022-12-08T06:08:14.498Z,11.60
2022-12-08T06:10:43.511Z,11.75
2022-12-08T06:13:11.085Z,12.45
2022-12-08T06:15:39.328Z,11.30
2022-12-08T06:18:07.486Z,12.20
2022-12-08T06:20:34.965Z,13.32
2022-12-08T06:23:03.446Z,12.40
2022-12-08T06:25:31.072Z,13.02
2022-12-08T06:27:58.429Z,13.88
2022-12-08T06:30:26.056Z,16.05
2022-12-08T06:32:53.802Z,13.35
2022-12-08T06:35:21.167Z,14.23
2022-12-08T06:37:48.724Z,13.52
2022-12-08T06:40:16.399Z,13.95
2022-12-08T06:42:44.713Z,13.30
2022-12-08T06:45:13.316Z,13.27
2022-12-08T06:47:41.045Z,13.40
2022-12-08T06:50:09.745Z,13.00
2022-12-08T06:52:45.660Z,13.48
2022-12-08T06:55:35.305Z,15.68
2022-12-08T06:58:02.592Z,14.85
2022-12-08T07:00:30.311Z,14.02
2022-12-08T07:02:57.979Z,13.93
2022-12-08T07:05:25.369Z,14.00
2022-12-08T07:07:53.038Z,13.85
2022-12-08T07:10:20.399Z,14.02
2022-12-08T07:12:47.766Z,17.17
2022-12-08T07:15:16.225Z,17.67
2022-12-08T07:17:43.589Z,17.67
2022-12-08T07:20:11.191Z,18.27
2022-12-08T07:22:39.600Z,21.40
2022-12-08T07:25:07.356Z,21.55
2022-12-08T07:27:34.657Z,20.67
2022-12-08T07:30:02.576Z,23.65
2022-12-08T07:32:30.206Z,21.67
2022-12-08T07:34:57.517Z,22.10
2022-12-08T07:37:25.086Z,22.48
2022-12-08T07:39:52.388Z,22.17
2022-12-08T07:42:19.721Z,20.88
2022-12-08T07:44:47.442Z,22.90
2022-12-08T07:47:14.734Z,24.70
2022-12-08T07:49:42.223Z,24.98
2022-12-08T07:52:09.841Z,23.75
2022-12-08T07:54:37.238Z,24.70
2022-12-08T07:57:06.030Z,25.92
2022-12-08T07:59:33.640Z,28.48
2022-12-08T08:02:22.699Z,25.40
2022-12-08T08:04:51.612Z,23.67
2022-12-08T08:07:19.120Z,23.40
2022-12-08T08:09:46.524Z,22.67
2022-12-08T08:12:30.779Z,21.65
2022-12-08T08:15:07.414Z,21.35
2022-12-08T08:17:36.493Z,27.02
2022-12-08T08:20:07.256Z,29.52
2022-12-08T08:22:36.030Z,25.27
2022-12-08T08:25:03.964Z,25.67
2022-12-08T08:27:31.327Z,27.20
2022-12-08T08:29:58.924Z,27.45
2022-12-08T08:32:26.250Z,25.70
2022-12-08T08:34:53.627Z,26.65
2022-12-08T08:37:21.310Z,24.40
2022-12-08T08:39:48.930Z,24.30
2022-12-08T08:42:16.548Z,24.40
2022-12-08T08:44:44.120Z,25.42
2022-12-08T08:47:11.563Z,23.30
2022-12-08T08:49:38.877Z,25.27
2022-12-08T08:52:06.938Z,24.17
2022-12-08T08:54:34.628Z,23.85
2022-12-08T08:57:02.284Z,23.75
2022-12-08T08:59:30.159Z,23.98
2022-12-08T09:01:57.797Z,23.50
2022-12-08T09:04:25.669Z,24.05
2022-12-08T09:06:53.396Z,24.90
2022-12-08T09:09:20.764Z,25.58
2022-12-08T09:11:48.089Z,24.23
2022-12-08T09:14:15.850Z,23.27
2022-12-08T09:16:43.310Z,22.85
2022-12-08T09:19:10.730Z,23.27
2022-12-08T09:21:39.790Z,23.60
2022-12-08T09:24:08.306Z,22.27
2022-12-08T09:26:35.623Z,24.90
2022-12-08T09:29:03.248Z,23.10
2022-12-08T09:31:30.768Z,24.15
2022-12-08T09:33:59.240Z,22.77
2022-12-08T09:36:26.929Z,22.85
2022-12-08T09:38:54.707Z,21.60
2022-12-08T09:41:36.862Z,20.73
2022-12-08T09:44:23.402Z,18.70
2022-12-08T09:46:52.631Z,16.90
2022-12-08T09:49:23.447Z,16.87
2022-12-08T09:51:50.812Z,16.95
2022-12-08T09:54:32.110Z,15.82
2022-12-08T09:57:01.566Z,14.50
2022-12-08T09:59:31.882Z,14.32
2022-12-08T10:02:00.683Z,13.40
2022-12-08T10:04:35.206Z,14.00
2022-12-08T10:07:30.797Z,14.60
2022-12-08T10:10:27.573Z,13.75
2022-12-08T10:13:06.039Z,14.63
2022-12-08T10:15:52.423Z,13.60
2022-12-08T10:18:25.444Z,13.95
2022-12-08T10:20:53.584Z,13.70
2022-12-08T10:23:34.379Z,13.93
2022-12-08T10:26:05.047Z,13.23
2022-12-08T10:28:34.074Z,13.70
2022-12-08T10:31:01.790Z,13.25
2022-12-08T10:33:32.237Z,14.45
2022-12-08T10:36:03.133Z,13.60
2022-12-08T10:38:38.549Z,13.13
2022-12-08T10:41:11.880Z,13.62
2022-12-08T10:43:49.352Z,13.23
2022-12-08T10:46:28.387Z,13.18
2022-12-08T10:49:17.231Z,12.63
2022-12-08T10:51:44.594Z,12.75
2022-12-08T10:54:34.787Z,12.75
2022-12-08T10:57:02.170Z,11.93
2022-12-08T10:59:33.411Z,12.63
2022-12-08T11:02:01.032Z,12.88
2022-12-08T11:04:36.420Z,13.55
2022-12-08T11:07:05.982Z,14.98
2022-12-08T11:09:48.577Z,12.07
2022-12-08T11:12:18.053Z,11.90
2022-12-08T11:14:45.801Z,12.60
2022-12-08T11:17:24.690Z,12.45
2022-12-08T11:20:10.489Z,13.35
2022-12-08T11:22:39.968Z,12.18
2022-12-08T11:25:07.517Z,13.30
2022-12-08T11:27:39.228Z,12.93
2022-12-08T11:30:17.560Z,12.50
2022-12-08T11:32:48.777Z,11.88
2022-12-08T11:35:21.299Z,12.48
2022-12-08T11:37:48.993Z,11.48
2022-12-08T11:40:21.168Z,12.95
2022-12-08T11:45:28.456Z,12.35
2022-12-08T11:48:06.643Z,12.48
2022-12-08T11:50:56.598Z,11.82
2022-12-08T11:53:40.269Z,11.15
2022-12-08T11:56:17.679Z,12.23
2022-12-08T11:58:49.611Z,10.95
2022-12-08T12:01:21.139Z,11.55
2022-12-08T12:03:52.620Z,11.85
2022-12-08T12:06:53.694Z,10.98
2022-12-08T12:09:37.743Z,10.85
2022-12-08T12:12:43.994Z,12.00
2022-12-08T12:15:40.863Z,11.75
2022-12-08T12:18:50.075Z,12.35
2022-12-08T12:21:33.513Z,13.07
2022-12-08T12:24:08.141Z,11.45
2022-12-08T12:26:38.300Z,13.15
2022-12-08T12:29:17.422Z,12.55
2022-12-08T12:31:52.455Z,12.85
2022-12-08T12:34:24.290Z,12.05
2022-12-08T12:36:54.857Z,15.77
2022-12-08T12:39:26.543Z,12.95
2022-12-08T12:42:00.111Z,13.52
2022-12-08T12:44:33.424Z,12.68
2022-12-08T12:47:02.900Z,13.40
2022-12-08T12:49:39.580Z,13.23
2022-12-08T12:52:10.153Z,13.75
2022-12-08T12:54:42.305Z,13.48
2022-12-08T13:00:05.207Z,11.98
2022-12-08T13:02:46.577Z,14.25
2022-12-08T13:05:27.017Z,12.32
2022-12-08T13:07:58.193Z,11.68
2022-12-08T13:10:29.344Z,12.30
2022-12-08T13:13:12.633Z,12.57
2022-12-08T13:16:26.217Z,12.70
2022-12-08T13:19:04.311Z,11.98
2022-12-08T13:21:35.179Z,12.95
2022-12-08T13:24:19.802Z,12.48
2022-12-08T13:27:07.343Z,13.62
2022-12-08T13:29:35.719Z,12.70
2022-12-08T13:32:04.123Z,14.43
2022-12-08T13:34:45.426Z,13.50
2022-12-08T13:37:15.911Z,13.73
2022-12-08T13:39:56.541Z,14.13
2022-12-08T13:42:36.289Z,13.27
2022-12-08T13:45:33.635Z,13.10
2022-12-08T13:48:25.628Z,12.82
2022-12-08T13:57:19.003Z,12.98
2022-12-08T13:59:47.001Z,13.00
2022-12-08T14:02:31.803Z,13.70
2022-12-08T14:07:48.656Z,12.85
2022-12-08T14:10:26.303Z,12.63
2022-12-08T14:12:59.919Z,12.65
2022-12-08T14:15:31.386Z,12.20
2022-12-08T14:18:03.035Z,10.85
2022-12-08T14:20:33.835Z,11.48
2022-12-08T14:23:09.845Z,12.77
2022-12-08T14:25:38.723Z,12.98
2022-12-08T14:28:06.323Z,13.18
2022-12-08T14:30:34.652Z,13.32
2022-12-08T14:33:03.775Z,13.73
2022-12-08T14:35:33.357Z,13.90
2022-12-08T14:38:06.153Z,14.80
2022-12-08T14:40:42.016Z,14.63
2022-12-08T14:43:09.302Z,15.40
2022-12-08T14:45:42.906Z,16.02
2022-12-08T14:48:21.995Z,15.40
2022-12-08T14:51:14.383Z,15.27
2022-12-08T14:53:52.572Z,15.52
2022-12-08T14:56:46.148Z,15.07
2022-12-08T14:59:34.591Z,14.50
2022-12-08T15:02:24.223Z,13.73
2022-12-08T15:05:11.053Z,13.23
2022-12-08T15:07:54.655Z,14.48
2022-12-08T15:10:25.248Z,13.75
2022-12-08T15:13:10.967Z,13.68
2022-12-08T15:15:55.814Z,14.13
2022-12-08T15:18:38.323Z,12.82
2022-12-08T15:21:08.987Z,13.82
2022-12-08T15:23:39.351Z,14.57
2022-12-08T15:26:06.779Z,13.25
2022-12-08T15:28:34.233Z,15.00
2022-12-08T15:31:01.866Z,15.20
2022-12-08T15:33:29.203Z,15.10
2022-12-08T15:35:56.562Z,14.68
2022-12-08T15:38:26.428Z,13.95
2022-12-08T15:40:54.474Z,13.82
2022-12-08T15:43:22.539Z,14.00
2022-12-08T15:45:59.839Z,13.77
2022-12-08T15:48:29.276Z,15.02
2022-12-08T15:50:57.720Z,14.55
2022-12-08T15:53:25.328Z,15.52
2022-12-08T15:56:25.760Z,14.65
2022-12-08T15:58:57.342Z,14.50
2022-12-08T16:01:26.086Z,14.95
2022-12-08T16:04:47.452Z,16.80
2022-12-08T16:09:38.606Z,15.07
2022-12-08T16:12:35.547Z,14.23
2022-12-08T16:18:03.040Z,14.90
2022-12-08T16:21:05.232Z,14.38
2022-12-08T16:23:34.714Z,15.50
2022-12-08T16:26:24.061Z,15.10
2022-12-08T16:28:54.949Z,14.23
2022-12-08T16:31:23.681Z,14.82
2022-12-08T16:33:51.267Z,15.48
2022-12-08T16:36:18.575Z,16.23
2022-12-08T16:38:46.220Z,15.15
2022-12-08T16:41:36.102Z,14.48
2022-12-08T16:44:05.869Z,13.45
2022-12-08T16:46:33.571Z,16.77
2022-12-08T16:49:00.951Z,14.70
2022-12-08T16:51:28.633Z,13.85
2022-12-08T16:53:57.026Z,14.00
2022-12-08T16:56:30.620Z,15.50
2022-12-08T16:59:00.709Z,15.48
2022-12-08T17:01:28.100Z,13.43
2022-12-08T17:04:29.299Z,12.23
2022-12-08T17:06:43.046Z,12.57
2022-12-08T17:09:10.463Z,11.30
2022-12-08T17:11:42.940Z,11.35
2022-12-08T17:14:14.941Z,12.82
2022-12-08T17:16:42.981Z,15.27
2022-12-08T17:19:12.795Z,15.43
2022-12-08T17:21:40.309Z,13.40
2022-12-08T17:24:07.762Z,13.48
2022-12-08T17:26:35.444Z,13.02
2022-12-08T17:29:03.899Z,11.12
2022-12-08T17:31:32.432Z,11.75
2022-12-08T17:34:05.662Z,11.25
2022-12-08T17:36:33.046Z,11.88
2022-12-08T17:39:01.153Z,15.82
2022-12-08T17:41:29.006Z,20.70
2022-12-08T17:43:56.431Z,21.62
2022-12-08T17:46:24.451Z,19.73
2022-12-08T17:48:52.056Z,21.70
2022-12-08T17:51:19.771Z,27.70
2022-12-08T17:53:47.451Z,24.15
2022-12-08T17:56:20.199Z,15.45
2022-12-08T17:58:52.937Z,14.73
2022-12-08T18:01:23.462Z,14.43
2022-12-08T18:03:51.608Z,14.43
2022-12-08T18:06:18.982Z,14.00
2022-12-08T18:08:46.439Z,14.10
2022-12-08T18:11:17.663Z,14.25
2022-12-08T18:13:45.889Z,13.48
2022-12-08T18:16:14.047Z,13.70
2022-12-08T18:18:41.996Z,13.38
2022-12-08T18:21:09.912Z,13.40
2022-12-08T18:23:38.106Z,14.27
2022-12-08T18:26:07.299Z,13.88
2022-12-08T18:28:35.603Z,14.00
2022-12-08T18:31:17.371Z,13.23
2022-12-08T18:33:46.623Z,14.65
2022-12-08T18:36:17.047Z,14.10
2022-12-08T18:38:44.945Z,13.85
2022-12-08T18:41:17.918Z,13.82
2022-12-08T18:43:45.723Z,14.73
2022-12-08T18:46:14.443Z,15.20
2022-12-08T18:48:47.661Z,14.20
2022-12-08T18:51:20.881Z,13.35
2022-12-08T18:53:48.308Z,13.30
2022-12-08T18:56:25.371Z,15.52
2022-12-08T18:58:54.028Z,13.38
2022-12-08T19:01:24.267Z,13.30
2022-12-08T19:04:19.872Z,13.88
2022-12-08T19:06:40.502Z,11.73
2022-12-08T19:09:09.063Z,13.40
2022-12-08T19:11:36.396Z,12.70
2022-12-08T19:14:04.655Z,12.20
2022-12-08T19:16:32.012Z,12.98
2022-12-08T19:18:59.390Z,13.70
2022-12-08T19:21:27.303Z,11.93
2022-12-08T19:23:58.246Z,12.65
2022-12-08T19:26:27.388Z,13.43
2022-12-08T19:28:55.012Z,12.88
2022-12-08T19:31:22.467Z,14.75
2022-12-08T19:33:49.943Z,12.25
2022-12-08T19:36:20.824Z,13.25
2022-12-08T19:39:07.247Z,15.23
2022-12-08T19:41:55.209Z,16.02
2022-12-08T19:44:46.558Z,17.62
2022-12-08T19:47:14.694Z,18.37
2022-12-08T19:49:42.099Z,13.77
2022-12-08T19:52:09.582Z,13.27
2022-12-08T19:54:37.243Z,12.73
2022-12-08T19:57:04.582Z,12.98
2022-12-08T19:59:31.946Z,13.30
2022-12-08T20:02:00.167Z,12.77
2022-12-08T20:04:27.874Z,13.43
2022-12-08T20:06:56.469Z,13.02
2022-12-08T20:09:24.260Z,13.00
2022-12-08T20:11:54.680Z,13.55
2022-12-08T20:14:22.780Z,13.50
2022-12-08T20:16:50.660Z,12.65
2022-12-08T20:19:18.652Z,13.65
2022-12-08T20:21:46.004Z,12.98
2022-12-08T20:24:13.392Z,12.75
2022-12-08T20:26:41.090Z,14.50
2022-12-08T20:29:08.915Z,13.82
2022-12-08T20:31:36.344Z,13.43
2022-12-08T20:34:04.071Z,13.50
2022-12-08T20:36:31.530Z,13.52
2022-12-08T20:38:58.927Z,13.95
2022-12-08T20:41:26.583Z,13.60
2022-12-08T20:43:54.383Z,13.68
2022-12-08T20:46:21.889Z,14.52
2022-12-08T20:48:49.737Z,14.25
2022-12-08T20:51:18.871Z,14.48
2022-12-08T20:53:46.447Z,14.35
2022-12-08T20:56:19.149Z,14.38
2022-12-08T20:58:47.043Z,14.55
2022-12-08T21:01:16.797Z,15.30
2022-12-08T21:03:45.479Z,15.15
2022-12-08T21:06:13.608Z,15.07
2022-12-08T21:08:42.335Z,15.05
2022-12-08T21:11:10.101Z,16.30
2022-12-08T21:13:38.598Z,19.58
2022-12-08T21:16:06.704Z,17.70
2022-12-08T21:18:39.234Z,18.33
2022-12-08T21:21:11.272Z,17.70
2022-12-08T21:23:38.970Z,16.67
2022-12-08T21:26:13.757Z,16.42
2022-12-08T21:28:41.999Z,16.02
2022-12-08T21:31:10.853Z,15.45
2022-12-08T21:33:38.828Z,17.30
2022-12-08T21:36:09.133Z,17.25
2022-12-08T21:38:38.190Z,16.15
2022-12-08T21:41:08.263Z,17.08
2022-12-08T21:43:36.367Z,17.77
2022-12-08T21:46:04.329Z,20.08
2022-12-08T21:48:31.859Z,18.95
2022-12-08T21:51:04.721Z,18.67
2022-12-08T21:53:32.431Z,17.92
2022-12-08T21:55:59.832Z,17.73
2022-12-08T21:58:27.220Z,17.50
2022-12-08T22:00:54.875Z,17.12
2022-12-08T22:03:22.963Z,17.77
2022-12-08T22:05:50.836Z,15.85
2022-12-08T22:08:18.236Z,17.65
2022-12-08T22:10:48.977Z,18.55
2022-12-08T22:13:16.525Z,17.48
2022-12-08T22:15:44.627Z,17.75
2022-12-08T22:18:12.439Z,17.62
2022-12-08T22:20:43.919Z,18.27
2022-12-08T22:23:12.196Z,18.75
2022-12-08T22:25:39.505Z,18.12
2022-12-08T22:28:06.885Z,17.90
2022-12-08T22:30:39.030Z,17.77
2022-12-08T22:33:06.778Z,17.98
2022-12-08T22:35:34.354Z,18.95
2022-12-08T22:38:01.643Z,17.92
2022-12-08T22:40:29.165Z,18.75
2022-12-08T22:42:57.318Z,19.67
2022-12-08T22:45:24.824Z,18.80
2022-12-08T22:47:52.338Z,18.70
2022-12-08T22:50:19.893Z,20.30
2022-12-08T22:52:47.424Z,18.75
2022-12-08T22:55:14.922Z,18.90
2022-12-08T22:57:42.724Z,20.08
2022-12-08T23:00:11.617Z,19.35
2022-12-08T23:02:39.439Z,19.00
2022-12-08T23:05:07.296Z,19.42
2022-12-08T23:07:34.749Z,19.58
2022-12-08T23:10:02.210Z,19.85
2022-12-08T23:12:29.849Z,21.12
2022-12-08T23:14:57.489Z,21.10
2022-12-08T23:17:25.709Z,20.05
2022-12-08T23:19:53.740Z,19.42
2022-12-08T23:22:21.139Z,19.77
2022-12-08T23:24:48.596Z,19.48
2022-12-08T23:27:16.244Z,21.02
2022-12-08T23:29:43.832Z,18.83
2022-12-08T23:32:11.308Z,20.12
2022-12-08T23:34:39.223Z,19.85
2022-12-08T23:37:06.708Z,20.80
2022-12-08T23:39:34.527Z,20.35
2022-12-08T23:42:02.521Z,19.85
2022-12-08T23:44:30.050Z,20.02
2022-12-08T23:46:57.561Z,20.02
2022-12-08T23:49:25.254Z,20.48
2022-12-08T23:51:52.575Z,21.90
2022-12-08T23:54:19.880Z,21.35
2022-12-08T23:56:47.462Z,20.62
2022-12-08T23:59:14.864Z,19.05
